Time;durP1;ratioP1;P1;durP2;ratioP2;P2;SDS_P1;SDS_P2;PMS_P1;PMS_P2;Temp;Humidity;BMP_temperature;BMP_pressure;BME280_temperature;BME280_humidity;BME280_pressure;Samples;Min_cycle;Max_cycle;Signal;HPM_P1;HPM_P2
2023/07/31 00:01:58;;;;;;;9.48;8.65;;;;;;;20.42;100.00;95338.00;5007539;28;20484;-91
2023/07/31 00:04:24;;;;;;;7.30;6.60;;;;;;;20.52;100.00;95255.09;5007983;28;20026;-87
2023/07/31 00:06:49;;;;;;;8.68;6.22;;;;;;;20.46;100.00;95164.66;5006616;28;20144;-89
2023/07/31 00:09:15;;;;;;;6.32;5.72;;;;;;;20.41;100.00;95102.22;5007902;28;20045;-89
2023/07/31 00:11:40;;;;;;;6.43;5.90;;;;;;;20.45;100.00;95074.38;5006137;28;20041;-85
2023/07/31 00:14:06;;;;;;;6.13;5.72;;;;;;;20.31;100.00;95080.09;5007589;28;20071;-84
2023/07/31 00:16:31;;;;;;;6.65;6.00;;;;;;;20.03;100.00;95061.50;5006528;28;20021;-86
2023/07/31 00:18:57;;;;;;;8.45;6.15;;;;;;;20.16;100.00;95106.03;4989939;28;20026;-87
2023/07/31 00:21:22;;;;;;;7.55;6.85;;;;;;;20.15;100.00;95138.59;5007010;28;20371;-87
2023/07/31 00:23:47;;;;;;;7.35;6.65;;;;;;;20.04;100.00;95160.41;5006764;28;20028;-84
2023/07/31 00:26:13;;;;;;;6.88;6.30;;;;;;;19.92;100.00;95192.75;5010518;28;20121;-86
2023/07/31 00:28:38;;;;;;;9.73;8.82;;;;;;;20.15;100.00;95257.78;5009721;28;20045;-87
2023/07/31 00:31:04;;;;;;;8.45;7.65;;;;;;;20.08;100.00;95293.88;5011264;28;20470;-85
2023/07/31 00:33:31;;;;;;;10.38;7.82;;;;;;;20.09;100.00;95327.06;5009848;28;20034;-84
2023/07/31 00:35:56;;;;;;;8.63;7.78;;;;;;;20.05;100.00;95339.03;5010895;28;20025;-83
2023/07/31 00:38:22;;;;;;;8.93;7.20;;;;;;;20.06;100.00;95331.97;5009746;28;20022;-83
2023/07/31 00:40:47;;;;;;;7.88;7.18;;;;;;;19.90;100.00;95313.13;4992778;28;20029;-86
2023/07/31 00:43:12;;;;;;;9.68;8.68;;;;;;;20.01;100.00;95332.59;5010792;28;20097;-86
2023/07/31 00:45:38;;;;;;;7.50;6.80;;;;;;;19.84;100.00;95319.22;5009896;28;20033;-86
2023/07/31 00:48:06;;;;;;;7.38;6.22;;;;;;;19.83;100.00;95299.25;5010547;28;20446;-85
2023/07/31 00:50:31;;;;;;;11.88;7.32;;;;;;;19.64;100.00;95291.56;5009359;28;20022;-86
2023/07/31 00:52:57;;;;;;;8.13;6.97;;;;;;;19.66;100.00;95315.78;5010448;28;20033;-85
2023/07/31 00:55:23;;;;;;;10.88;7.57;;;;;;;19.81;100.00;95324.16;4991595;28;20041;-87
2023/07/31 00:57:50;;;;;;;8.93;7.10;;;;;;;19.91;100.00;95309.44;5010480;28;20113;-86
2023/07/31 01:00:15;;;;;;;7.93;7.22;;;;;;;19.85;100.00;95291.13;5009425;28;20042;-85
2023/07/31 01:02:41;;;;;;;7.65;7.05;;;;;;;19.51;100.00;95282.00;5009910;28;20030;-86
2023/07/31 01:05:07;;;;;;;7.85;6.30;;;;;;;19.49;100.00;95268.25;5010070;28;20550;-86
2023/07/31 01:07:54;;;;;;;9.23;7.07;;;;;;;19.55;100.00;95256.06;4991364;28;20033;-88
2023/07/31 01:10:27;;;;;;;7.88;6.97;;;;;;;19.54;100.00;95220.31;5010576;28;20056;-88
2023/07/31 01:12:53;;;;;;;7.90;7.30;;;;;;;19.60;100.00;95187.88;5008857;28;20018;-85
2023/07/31 01:15:19;;;;;;;8.90;8.23;;;;;;;19.64;100.00;95245.06;5009920;28;20446;-86
2023/07/31 01:17:45;;;;;;;9.07;7.43;;;;;;;19.54;100.00;95259.72;5009507;28;20024;-84
2023/07/31 01:20:12;;;;;;;8.10;7.25;;;;;;;19.65;100.00;95272.16;4991590;28;20024;-84
2023/07/31 01:23:15;;;;;;;12.57;8.90;;;;;;;19.76;100.00;95289.81;4992260;28;20431;-84
2023/07/31 01:26:08;;;;;;;9.63;7.80;;;;;;;19.60;100.00;95303.53;4991130;28;20025;-86
2023/07/31 01:28:52;;;;;;;9.10;8.38;;;;;;;19.74;100.00;95328.66;5009544;28;20033;-86
2023/07/31 01:31:23;;;;;;;8.70;7.90;;;;;;;19.63;100.00;95335.44;5009829;28;20026;-85
2023/07/31 01:33:50;;;;;;;10.93;8.15;;;;;;;19.56;100.00;95332.06;5008412;28;20026;-86
2023/07/31 01:36:16;;;;;;;11.23;8.48;;;;;;;19.49;100.00;95362.84;4991913;28;20119;-86
2023/07/31 01:38:41;;;;;;;10.32;9.43;;;;;;;19.48;100.00;95370.97;4990774;28;20124;-86
2023/07/31 01:41:07;;;;;;;11.05;10.10;;;;;;;19.60;100.00;95369.22;4991619;28;20034;-86
2023/07/31 01:43:32;;;;;;;9.52;8.55;;;;;;;19.50;100.00;95359.22;5008936;28;20403;-86
2023/07/31 01:45:57;;;;;;;11.95;9.55;;;;;;;19.61;100.00;95365.59;5008743;28;20510;-85
2023/07/31 01:48:23;;;;;;;9.50;8.52;;;;;;;19.51;100.00;95341.63;5009352;28;20029;-86
2023/07/31 01:50:48;;;;;;;7.85;7.35;;;;;;;19.24;100.00;95288.47;5008381;28;20029;-84
2023/07/31 01:53:14;;;;;;;9.23;8.43;;;;;;;19.23;100.00;95295.53;5009199;28;20026;-87
2023/07/31 01:55:40;;;;;;;8.73;7.93;;;;;;;19.36;100.00;95315.66;5008259;28;20022;-86
2023/07/31 01:58:05;;;;;;;8.35;7.78;;;;;;;19.25;100.00;95295.34;5009125;28;20412;-87
2023/07/31 02:00:30;;;;;;;8.70;7.90;;;;;;;19.12;100.00;95306.75;5007962;28;20033;-86
2023/07/31 02:02:56;;;;;;;9.57;8.32;;;;;;;19.08;100.00;95342.34;5009213;28;20064;-85
2023/07/31 02:05:21;;;;;;;8.75;7.85;;;;;;;18.98;100.00;95359.56;5008646;28;20137;-86
2023/07/31 02:07:47;;;;;;;9.90;9.00;;;;;;;19.02;100.00;95376.50;5008321;28;20448;-86
2023/07/31 02:10:12;;;;;;;8.43;7.85;;;;;;;18.99;100.00;95392.69;5009100;28;20036;-87
2023/07/31 02:12:38;;;;;;;9.85;8.85;;;;;;;19.06;100.00;95396.91;5007741;28;20447;-89
2023/07/31 02:15:04;;;;;;;9.32;8.63;;;;;;;19.01;100.00;95375.72;5008769;28;20034;-86
2023/07/31 02:17:29;;;;;;;9.68;8.88;;;;;;;19.02;100.00;95377.31;5007746;28;20145;-87
2023/07/31 02:19:55;;;;;;;10.05;9.23;;;;;;;19.01;100.00;95386.22;5008809;28;20415;-87
2023/07/31 02:22:20;;;;;;;10.55;9.65;;;;;;;18.93;100.00;95410.91;5007509;28;20212;-90
2023/07/31 02:24:46;;;;;;;10.20;9.25;;;;;;;18.89;100.00;95427.28;5008465;28;20034;-87
2023/07/31 02:27:11;;;;;;;10.27;8.80;;;;;;;18.96;100.00;95446.44;5008386;28;20018;-86
2023/07/31 02:29:37;;;;;;;9.70;8.88;;;;;;;18.98;100.00;95460.16;5007518;28;20025;-90
2023/07/31 02:32:03;;;;;;;10.07;9.07;;;;;;;19.10;100.00;95482.13;5008759;28;20026;-88
2023/07/31 02:34:28;;;;;;;9.45;8.43;;;;;;;19.15;100.00;95471.78;5007388;28;20026;-86
2023/07/31 02:36:53;;;;;;;10.95;10.07;;;;;;;19.18;100.00;95454.78;5008686;28;20025;-87
2023/07/31 02:39:19;;;;;;;10.20;9.50;;;;;;;19.41;100.00;95450.66;5007074;28;20329;-87
2023/07/31 02:41:44;;;;;;;11.57;10.57;;;;;;;19.50;100.00;95455.63;5008438;28;20038;-86
2023/07/31 02:44:12;;;;;;;12.88;11.77;;;;;;;19.55;100.00;95440.03;5007875;28;20024;-85
2023/07/31 02:46:38;;;;;;;10.43;9.68;;;;;;;19.36;100.00;95431.25;5007760;28;20029;-88
2023/07/31 02:49:03;;;;;;;13.52;12.48;;;;;;;19.28;100.00;95439.38;5007889;28;20018;-89
2023/07/31 02:51:29;;;;;;;11.63;10.73;;;;;;;19.30;100.00;95438.16;5006750;28;20471;-86
2023/07/31 02:53:54;;;;;;;12.80;11.80;;;;;;;19.27;100.00;95458.78;5008602;28;20079;-87
2023/07/31 02:56:20;;;;;;;13.07;12.27;;;;;;;19.28;100.00;95478.78;5007016;28;20429;-86
2023/07/31 02:58:45;;;;;;;14.77;13.57;;;;;;;19.25;100.00;95474.75;5008502;28;20088;-87
2023/07/31 03:01:10;;;;;;;15.10;13.48;;;;;;;19.40;100.00;95477.94;5007406;28;20335;-87
2023/07/31 03:03:36;;;;;;;17.35;15.65;;;;;;;19.30;100.00;95440.78;5008222;28;20348;-88
2023/07/31 03:06:01;;;;;;;17.38;16.10;;;;;;;19.40;100.00;95420.13;5008089;28;20021;-86
2023/07/31 03:08:27;;;;;;;18.45;16.90;;;;;;;19.27;100.00;95399.16;5006941;28;20491;-86
2023/07/31 03:10:52;;;;;;;20.60;18.85;;;;;;;19.48;100.00;95420.88;5008532;28;20090;-85
2023/07/31 03:13:18;;;;;;;19.77;18.17;;;;;;;19.27;100.00;95396.53;5006812;28;20386;-86
2023/07/31 03:15:43;;;;;;;22.25;20.65;;;;;;;19.38;100.00;95390.59;5007667;28;20069;-84
2023/07/31 03:18:09;;;;;;;21.17;19.52;;;;;;;19.41;100.00;95413.84;5006929;28;20037;-86
2023/07/31 03:20:34;;;;;;;22.90;20.92;;;;;;;19.47;100.00;95456.88;5007840;28;20564;-86
2023/07/31 03:23:00;;;;;;;23.98;21.95;;;;;;;19.43;100.00;95485.38;5007368;28;20046;-86
2023/07/31 03:25:25;;;;;;;24.00;22.02;;;;;;;19.43;100.00;95500.34;5007361;28;20041;-86
2023/07/31 03:27:51;;;;;;;23.95;22.00;;;;;;;19.48;100.00;95504.97;5007758;28;20495;-86
2023/07/31 03:30:16;;;;;;;23.63;21.77;;;;;;;19.53;100.00;95499.88;5006999;28;20037;-85
2023/07/31 03:32:42;;;;;;;24.55;22.70;;;;;;;19.55;100.00;95500.50;5007810;28;20014;-86
2023/07/31 03:35:07;;;;;;;24.10;22.05;;;;;;;19.48;100.00;95500.53;5006475;28;20029;-87
2023/07/31 03:37:33;;;;;;;27.67;25.17;;;;;;;19.52;100.00;95469.38;5007901;28;20403;-86
2023/07/31 03:39:58;;;;;;;28.08;25.55;;;;;;;19.55;100.00;95456.63;5006781;28;20381;-88
2023/07/31 03:42:24;;;;;;;27.27;24.60;;;;;;;19.60;100.00;95463.84;5007558;28;20113;-86
2023/07/31 03:44:49;;;;;;;32.03;28.98;;;;;;;19.64;100.00;95451.91;5007291;28;20026;-86
2023/07/31 03:47:15;;;;;;;34.80;31.45;;;;;;;19.59;100.00;95463.03;5006848;28;20026;-86
2023/07/31 03:49:40;;;;;;;30.90;28.20;;;;;;;19.75;100.00;95482.72;5007487;28;20026;-87
2023/07/31 03:52:06;;;;;;;33.42;30.42;;;;;;;19.64;100.00;95492.13;5006522;28;20030;-87
2023/07/31 03:54:32;;;;;;;38.53;34.83;;;;;;;19.66;100.00;95523.44;5007317;28;20067;-86
2023/07/31 03:56:57;;;;;;;40.72;37.08;;;;;;;19.69;100.00;95538.78;5006715;28;20052;-88
2023/07/31 03:59:23;;;;;;;38.47;34.78;;;;;;;19.74;100.00;95536.34;5008002;28;20413;-87
2023/07/31 04:01:48;;;;;;;37.70;34.03;;;;;;;19.70;100.00;95543.84;4992650;28;20037;-85
2023/07/31 04:04:14;;;;;;;42.22;38.22;;;;;;;19.80;100.00;95523.16;5011092;28;20501;-84
2023/07/31 04:06:39;;;;;;;39.22;35.63;;;;;;;19.93;100.00;95514.38;5010887;28;20029;-84
2023/07/31 04:09:04;;;;;;;45.53;41.47;;;;;;;19.90;100.00;95491.13;5010140;28;20487;-84
2023/07/31 04:11:30;;;;;;;37.08;33.65;;;;;;;19.92;100.00;95486.44;5011143;28;20026;-84
2023/07/31 04:13:55;;;;;;;39.25;35.78;;;;;;;19.84;100.00;95461.22;5009510;28;20077;-85
2023/07/31 04:16:21;;;;;;;41.38;37.50;;;;;;;19.84;100.00;95452.53;5011452;28;20412;-84
2023/07/31 04:18:46;;;;;;;42.63;38.60;;;;;;;19.84;100.00;95428.88;5009428;28;20102;-84
2023/07/31 04:21:12;;;;;;;41.30;37.42;;;;;;;20.03;100.00;95446.31;5011308;28;20049;-86
2023/07/31 04:23:38;;;;;;;40.83;36.88;;;;;;;20.04;100.00;95476.00;5010239;28;20026;-87
2023/07/31 04:26:03;;;;;;;42.50;38.47;;;;;;;20.10;100.00;95454.13;5010806;28;20033;-86
2023/07/31 04:28:31;;;;;;;47.92;42.92;;;;;;;20.12;100.00;95442.38;5010931;28;20033;-84
2023/07/31 04:30:56;;;;;;;46.15;41.55;;;;;;;20.14;100.00;95452.66;5009280;28;20407;-85
2023/07/31 04:33:22;;;;;;;44.60;40.40;;;;;;;20.18;100.00;95459.91;5010724;28;20026;-84
2023/07/31 04:35:52;;;;;;;43.47;39.25;;;;;;;20.16;100.00;95467.22;5009102;28;20022;-84
2023/07/31 04:38:18;;;;;;;43.92;39.88;;;;;;;20.18;100.00;95457.28;5010940;28;20568;-84
2023/07/31 04:40:44;;;;;;;43.35;39.47;;;;;;;20.15;100.00;95457.72;5009545;28;20028;-86
2023/07/31 04:43:10;;;;;;;42.80;38.70;;;;;;;20.17;100.00;95458.28;5010278;28;20415;-85
2023/07/31 04:45:35;;;;;;;42.05;38.08;;;;;;;20.31;100.00;95424.78;5010284;28;20088;-86
2023/07/31 04:48:00;;;;;;;42.60;38.55;;;;;;;20.43;100.00;95401.97;5009214;28;20033;-84
2023/07/31 04:50:26;;;;;;;44.60;40.28;;;;;;;20.43;100.00;95401.97;5010422;28;20036;-84
2023/07/31 04:52:52;;;;;;;43.33;39.28;;;;;;;20.60;100.00;95403.00;5008756;28;20320;-84
2023/07/31 04:55:17;;;;;;;39.53;35.95;;;;;;;20.73;100.00;95394.13;5010251;28;20033;-84
2023/07/31 04:57:42;;;;;;;38.70;35.00;;;;;;;20.67;100.00;95379.22;5008967;28;20026;-85
2023/07/31 05:00:08;;;;;;;41.65;37.53;;;;;;;20.64;100.00;95398.91;5009931;28;20022;-84
2023/07/31 05:02:34;;;;;;;38.15;34.55;;;;;;;20.55;100.00;95420.50;5009307;28;20034;-87
2023/07/31 05:04:59;;;;;;;38.63;34.85;;;;;;;20.49;100.00;95415.06;5379378;23;20107;-86
2023/07/31 05:07:24;;;;;;;39.55;35.95;;;;;;;20.45;100.00;95408.63;4974317;28;20049;-86
2023/07/31 05:09:50;;;;;;;40.08;36.33;;;;;;;20.48;100.00;95428.47;4992970;28;20112;-88
2023/07/31 05:12:15;;;;;;;39.63;35.40;;;;;;;20.49;100.00;95424.78;4976047;28;20475;-87
2023/07/31 05:14:41;;;;;;;41.67;37.80;;;;;;;20.46;100.00;95410.25;4993147;28;20038;-89
2023/07/31 05:17:06;;;;;;;37.13;33.55;;;;;;;20.54;100.00;95414.41;4992640;28;20018;-91
2023/07/31 05:19:32;;;;;;;43.65;39.40;;;;;;;20.63;100.00;95376.22;4993413;28;20037;-87
2023/07/31 05:21:57;;;;;;;40.08;36.08;;;;;;;20.72;100.00;95335.38;5009522;28;20034;-87
2023/07/31 05:24:23;;;;;;;41.83;37.53;;;;;;;20.67;100.00;95308.94;4993082;28;20124;-86
2023/07/31 05:26:48;;;;;;;40.60;36.60;;;;;;;20.68;100.00;95334.22;4992402;28;20033;-87
2023/07/31 05:29:14;;;;;;;41.25;37.05;;;;;;;20.76;100.00;95312.06;5010438;28;20021;-87
2023/07/31 05:31:39;;;;;;;40.88;36.95;;;;;;;20.79;100.00;95266.84;5010527;28;20030;-89
2023/07/31 05:34:05;;;;;;;39.38;35.20;;;;;;;20.74;100.00;95264.09;4975645;28;20486;-85
2023/07/31 05:36:30;;;;;;;37.85;34.35;;;;;;;20.74;100.00;95311.47;4976609;28;20673;-91
2023/07/31 05:38:56;;;;;;;41.35;37.17;;;;;;;20.78;100.00;95300.25;4991917;28;20034;-90
2023/07/31 05:41:21;;;;;;;36.97;33.25;;;;;;;20.67;100.00;95245.75;4993270;28;20487;-90
2023/07/31 05:43:47;;;;;;;38.65;34.85;;;;;;;20.68;100.00;95220.25;4975597;28;20026;-89
2023/07/31 05:46:12;;;;;;;38.40;34.55;;;;;;;20.72;100.00;95216.09;5010449;28;20113;-86
2023/07/31 05:48:38;;;;;;;40.42;36.22;;;;;;;20.95;100.00;95242.47;4976233;28;20072;-88
2023/07/31 05:51:03;;;;;;;41.95;37.67;;;;;;;20.99;100.00;95209.38;4992037;28;20037;-94
2023/07/31 05:53:29;;;;;;;40.60;36.72;;;;;;;21.32;100.00;95146.38;4976481;28;20543;-87
2023/07/31 05:55:54;;;;;;;40.15;36.05;;;;;;;21.38;100.00;95098.00;4991468;28;20340;-87
2023/07/31 05:58:19;;;;;;;39.17;35.28;;;;;;;21.41;100.00;95110.72;4992660;28;20026;-87
2023/07/31 06:00:45;;;;;;;38.60;35.05;;;;;;;21.39;100.00;95144.41;4991436;28;20167;-87
2023/07/31 06:03:10;;;;;;;43.25;38.65;;;;;;;21.36;100.00;95146.72;4992110;28;20041;-86
2023/07/31 06:05:36;;;;;;;38.30;34.60;;;;;;;21.34;100.00;95188.31;4971574;28;20054;-89
2023/07/31 06:08:01;;;;;;;38.75;35.25;;;;;;;21.51;100.00;95121.44;4989167;28;20595;-91
2023/07/31 06:10:28;;;;;;;36.28;32.90;;;;;;;22.18;100.00;95021.38;4989170;28;20487;-88
2023/07/31 06:12:53;;;;;;;32.50;29.40;;;;;;;22.16;100.00;94854.56;4988498;28;20088;-87
2023/07/31 06:15:19;;;;;;;33.45;30.45;;;;;;;21.99;100.00;94853.81;4990763;28;20030;-87
2023/07/31 06:17:45;;;;;;;32.03;29.23;;;;;;;23.44;100.00;94793.00;4988091;28;20030;-89
2023/07/31 06:20:10;;;;;;;26.90;24.70;;;;;;;30.03;100.00;94426.41;4989944;28;20031;-85
2023/07/31 06:22:36;;;;;;;22.73;21.20;;;;;;;30.58;100.00;94422.34;4987140;28;20039;-85
2023/07/31 06:25:02;;;;;;;21.88;20.35;;;;;;;28.20;100.00;94433.94;4990068;28;20088;-86
2023/07/31 06:27:27;;;;;;;19.52;18.10;;;;;;;25.97;100.00;94432.53;4973575;28;20034;-92
2023/07/31 06:29:53;;;;;;;21.67;20.05;;;;;;;24.87;100.00;94442.75;4990532;28;20404;-87
2023/07/31 06:32:18;;;;;;;22.08;20.10;;;;;;;24.51;100.00;94456.09;4991186;28;20030;-92
2023/07/31 06:34:44;;;;;;;21.70;19.83;;;;;;;24.37;100.00;94441.84;4989226;28;20114;-88
2023/07/31 06:37:09;;;;;;;19.83;18.23;;;;;;;25.87;100.00;94432.63;4991566;28;20025;-95
2023/07/31 06:39:35;;;;;;;18.42;17.13;;;;;;;25.47;100.00;94434.47;4988411;28;20034;-92
2023/07/31 06:42:00;;;;;;;18.67;17.27;;;;;;;24.46;100.00;94450.84;4989084;28;20019;-92
2023/07/31 06:44:25;;;;;;;17.42;16.17;;;;;;;23.82;100.00;94447.19;4972603;28;20061;-88
2023/07/31 06:46:51;;;;;;;19.42;18.02;;;;;;;23.62;100.00;94447.97;4972914;28;20028;-88
2023/07/31 06:49:16;;;;;;;20.25;18.77;;;;;;;23.49;100.00;94473.09;4987754;28;20112;-87
2023/07/31 06:51:42;;;;;;;21.13;19.35;;;;;;;23.49;100.00;94515.41;4988500;28;20034;-93
2023/07/31 06:54:08;;;;;;;22.13;20.35;;;;;;;23.42;100.00;94528.06;4988682;28;20037;-90
2023/07/31 06:56:34;;;;;;;21.85;19.75;;;;;;;24.00;100.00;94516.25;4972002;28;20022;-87
2023/07/31 06:58:59;;;;;;;19.05;17.23;;;;;;;24.32;100.00;94465.69;4972809;28;20026;-89
2023/07/31 07:01:25;;;;;;;17.13;15.90;;;;;;;23.60;100.00;94485.25;4971680;28;20037;-90
2023/07/31 07:03:51;;;;;;;15.05;13.98;;;;;;;23.39;100.00;94486.25;4973120;28;20026;-90
2023/07/31 07:06:19;;;;;;;15.65;14.18;;;;;;;23.30;100.00;94489.66;4987689;28;20097;-93
2023/07/31 07:08:45;;;;;;;14.63;13.63;;;;;;;24.38;100.00;94463.81;4987498;28;20038;-90
2023/07/31 07:11:10;;;;;;;13.95;12.98;;;;;;;26.23;100.00;94436.56;4987199;28;20514;-92
2023/07/31 07:13:36;;;;;;;13.32;12.13;;;;;;;25.71;100.00;94447.06;4987652;28;20030;-88
2023/07/31 07:16:02;;;;;;;13.85;12.63;;;;;;;24.87;100.00;94453.38;4987453;28;20348;-89
2023/07/31 07:18:27;;;;;;;12.20;11.07;;;;;;;24.36;100.00;94461.44;4971290;28;20026;-91
2023/07/31 07:20:54;;;;;;;13.45;12.32;;;;;;;24.28;100.00;94461.97;4971574;28;20022;-86
2023/07/31 07:23:20;;;;;;;12.52;11.50;;;;;;;25.28;100.00;94446.78;4971194;28;20121;-90
2023/07/31 07:25:47;;;;;;;11.65;10.75;;;;;;;26.85;100.00;94435.63;4987988;28;20431;-86
2023/07/31 07:28:12;;;;;;;10.70;9.25;;;;;;;27.55;100.00;94431.25;4971343;28;20030;-89
2023/07/31 07:30:38;;;;;;;10.23;9.23;;;;;;;27.24;100.00;94428.22;4971432;28;20033;-95
2023/07/31 07:33:03;;;;;;;8.57;7.97;;;;;;;27.85;100.00;94435.31;4972057;28;20030;-90
2023/07/31 07:35:29;;;;;;;7.57;7.00;;;;;;;28.04;98.33;94424.59;4975371;28;20031;-94
2023/07/31 07:37:54;;;;;;;9.25;8.27;;;;;;;28.12;95.21;94432.78;4992594;28;20018;-88
2023/07/31 07:40:20;;;;;;;9.95;7.22;;;;;;;28.39;94.54;94434.66;4992166;28;20023;-86
2023/07/31 07:42:46;;;;;;;8.13;7.47;;;;;;;28.13;92.20;94442.31;4991283;28;20037;-86
2023/07/31 07:45:12;;;;;;;8.38;7.78;;;;;;;28.46;90.67;94434.28;4993074;28;20026;-91
2023/07/31 07:47:38;;;;;;;7.60;7.10;;;;;;;28.57;89.89;94439.16;4995849;28;20023;-87
2023/07/31 07:50:04;;;;;;;10.13;7.45;;;;;;;28.80;91.21;94428.63;4979481;28;20026;-86
2023/07/31 07:52:29;;;;;;;7.03;6.28;;;;;;;28.78;89.80;94429.69;4974921;28;20030;-85
2023/07/31 07:54:55;;;;;;;6.60;6.00;;;;;;;28.36;90.44;94437.13;4991037;28;20733;-86
2023/07/31 07:57:20;;;;;;;6.38;5.70;;;;;;;28.11;87.13;94431.19;4991205;28;20202;-89
2023/07/31 07:59:46;;;;;;;6.80;5.55;;;;;;;28.41;84.42;94443.19;4991176;28;20060;-91
2023/07/31 08:02:11;;;;;;;6.35;5.85;;;;;;;28.90;85.11;94431.84;4977344;28;20484;-90
2023/07/31 08:04:37;;;;;;;6.05;5.32;;;;;;;29.17;85.16;94442.50;4976341;28;20124;-91
2023/07/31 08:07:02;;;;;;;6.30;5.80;;;;;;;29.27;80.29;94449.53;5009312;28;20061;-88
2023/07/31 08:09:28;;;;;;;5.45;4.85;;;;;;;29.22;82.08;94431.69;4994350;28;20163;-92
2023/07/31 08:11:54;;;;;;;6.32;5.78;;;;;;;28.94;82.71;94432.03;4994014;28;20215;-93
2023/07/31 08:14:19;;;;;;;6.25;5.82;;;;;;;28.97;81.81;94426.09;4977681;28;20037;-93
2023/07/31 08:16:45;;;;;;;5.85;5.30;;;;;;;29.30;80.58;94432.91;4993507;28;20018;-89
2023/07/31 08:19:11;;;;;;;5.82;5.40;;;;;;;29.36;80.37;94426.38;4977142;28;20037;-88
2023/07/31 08:21:36;;;;;;;5.57;5.03;;;;;;;28.84;80.44;94425.03;4993726;28;20121;-84
2023/07/31 08:24:02;;;;;;;5.93;5.40;;;;;;;29.76;79.29;94425.44;4979409;28;20451;-94
2023/07/31 08:26:27;;;;;;;5.95;5.40;;;;;;;30.13;77.87;94424.28;4979286;28;20026;-91
2023/07/31 08:28:53;;;;;;;5.95;5.45;;;;;;;29.69;79.13;94430.44;4977229;28;20029;-89
2023/07/31 08:31:19;;;;;;;5.10;4.70;;;;;;;28.40;76.79;94428.25;4978043;28;20428;-88
2023/07/31 08:33:44;;;;;;;6.00;5.60;;;;;;;27.80;81.60;94431.94;4977937;28;20419;-93
2023/07/31 08:36:09;;;;;;;5.75;5.45;;;;;;;27.81;81.62;94433.50;4977913;28;20088;-88
2023/07/31 08:38:35;;;;;;;9.13;5.53;;;;;;;27.86;83.52;94426.25;4994404;28;20028;-89
2023/07/31 08:41:03;;;;;;;5.95;5.10;;;;;;;27.59;84.80;94426.94;5011909;28;20523;-90
2023/07/31 08:43:29;;;;;;;8.60;5.80;;;;;;;27.24;84.13;94430.06;4977858;28;20038;-88
2023/07/31 08:45:54;;;;;;;6.18;5.70;;;;;;;26.80;88.52;94432.22;4977062;28;20030;-93
2023/07/31 08:48:22;;;;;;;5.80;5.40;;;;;;;26.79;87.26;94423.44;4978076;28;20026;-87
2023/07/31 08:50:48;;;;;;;6.37;5.77;;;;;;;26.53;89.35;94425.59;4992852;28;20026;-92
2023/07/31 08:53:13;;;;;;;6.50;4.95;;;;;;;26.17;88.90;94437.66;4996629;28;20091;-95
2023/07/31 08:55:40;;;;;;;5.13;4.78;;;;;;;26.26;88.09;94433.34;4979185;28;20379;-91
2023/07/31 08:58:05;;;;;;;5.55;5.15;;;;;;;25.95;88.26;94424.03;4979029;28;20030;-88
2023/07/31 09:00:36;;;;;;;5.28;4.93;;;;;;;25.97;92.11;94428.00;4978091;28;20407;-94
2023/07/31 09:03:28;;;;;;;9.43;5.68;;;;;;;25.86;92.26;94434.47;4993706;28;20037;-96
2023/07/31 09:05:59;;;;;;;6.05;5.20;;;;;;;25.83;91.53;94431.56;4977060;28;20050;-96
2023/07/31 09:08:27;;;;;;;6.07;5.57;;;;;;;25.81;94.31;94434.53;4976893;28;20498;-93
2023/07/31 09:10:52;;;;;;;5.57;5.18;;;;;;;26.93;90.08;94437.69;4993231;28;20061;-90
2023/07/31 09:13:18;;;;;;;5.03;4.63;;;;;;;27.60;84.84;94428.53;4977277;28;20026;-86
2023/07/31 09:15:45;;;;;;;7.18;5.35;;;;;;;27.15;82.73;94423.81;4994303;28;20030;-92
2023/07/31 09:18:11;;;;;;;6.13;5.10;;;;;;;27.36;83.69;94426.97;4994855;28;20324;-86
2023/07/31 09:20:38;;;;;;;5.25;4.95;;;;;;;27.42;83.17;94425.84;4994123;28;20066;-90
2023/07/31 09:23:12;;;;;;;9.73;4.82;;;;;;;27.26;83.18;94425.25;4993601;28;20030;-89
2023/07/31 09:25:39;;;;;;;4.50;4.20;;;;;;;27.36;85.03;94425.09;4994131;28;20144;-93
2023/07/31 09:28:09;;;;;;;5.75;5.25;;;;;;;27.38;85.21;94422.19;4993705;28;20033;-92
2023/07/31 09:31:04;;;;;;;4.90;4.60;;;;;;;27.09;84.98;94419.66;4994697;28;20108;-92
2023/07/31 09:33:31;;;;;;;5.07;4.68;;;;;;;26.81;86.07;94415.22;4986002;28;20117;-91
2023/07/31 09:35:58;;;;;;;5.22;4.82;;;;;;;26.75;86.47;94416.34;4993443;28;20025;-90
2023/07/31 09:38:24;;;;;;;5.20;4.80;;;;;;;26.80;86.50;94413.59;4976907;28;20080;-90
2023/07/31 09:40:49;;;;;;;6.43;4.55;;;;;;;26.99;85.28;94411.81;4993670;28;20063;-89
2023/07/31 09:43:22;;;;;;;5.07;4.68;;;;;;;27.58;82.60;94409.38;4994379;28;20045;-94
2023/07/31 09:45:47;;;;;;;4.40;4.10;;;;;;;27.86;82.22;94404.16;4995002;28;20036;-91
2023/07/31 09:48:18;;;;;;;5.43;4.20;;;;;;;27.99;79.87;94393.53;4977050;28;20029;-84
2023/07/31 09:50:48;;;;;;;4.75;4.35;;;;;;;28.57;81.64;94403.69;4993439;28;20029;-92
2023/07/31 09:53:15;;;;;;;4.72;4.43;;;;;;;28.35;80.53;94406.25;4976664;28;20026;-92
2023/07/31 09:55:41;;;;;;;4.20;3.92;;;;;;;28.27;80.08;94402.38;4977698;28;20502;-89
2023/07/31 09:58:08;;;;;;;4.28;3.50;;;;;;;28.77;79.68;94405.97;4977658;28;20037;-93
2023/07/31 10:00:34;;;;;;;4.20;3.90;;;;;;;28.91;79.88;94390.75;4994445;28;20085;-88
2023/07/31 10:03:07;;;;;;;4.53;4.20;;;;;;;28.68;80.10;94391.75;5013110;28;20050;-92
2023/07/31 10:05:42;;;;;;;4.25;4.00;;;;;;;28.71;77.93;94399.16;4995544;28;20034;-95
2023/07/31 10:08:09;;;;;;;4.22;3.83;;;;;;;28.04;79.42;94396.09;4982291;28;20033;-94
2023/07/31 10:10:36;;;;;;;4.30;3.92;;;;;;;28.50;80.86;94398.75;4985487;28;20095;-92
2023/07/31 10:13:02;;;;;;;4.18;3.88;;;;;;;28.77;76.51;94387.31;4980141;28;20030;-94
2023/07/31 10:15:28;;;;;;;4.30;4.00;;;;;;;29.20;76.13;94390.41;4995673;28;20053;-93
2023/07/31 10:17:55;;;;;;;3.80;3.50;;;;;;;29.39;75.73;94388.41;4979614;28;20053;-91
2023/07/31 10:20:21;;;;;;;4.03;3.70;;;;;;;29.23;76.31;94393.25;4979001;28;20080;-93
2023/07/31 10:22:47;;;;;;;3.88;3.58;;;;;;;29.12;75.55;94391.13;4993836;28;20481;-91
2023/07/31 10:25:13;;;;;;;4.22;3.83;;;;;;;29.24;75.29;94396.72;4993994;28;20367;-94
2023/07/31 10:27:39;;;;;;;5.22;3.40;;;;;;;28.93;76.68;94395.81;4977615;28;20025;-92
2023/07/31 10:30:06;;;;;;;3.60;3.40;;;;;;;28.79;76.48;94393.16;5011299;28;20510;-89
2023/07/31 10:32:31;;;;;;;4.05;3.50;;;;;;;28.54;75.91;94396.28;4994842;28;20044;-95
2023/07/31 10:34:57;;;;;;;3.95;3.65;;;;;;;28.91;76.41;94393.44;4978444;28;20022;-94
2023/07/31 10:37:24;;;;;;;4.18;3.25;;;;;;;29.45;73.49;94394.41;4980425;28;20025;-93
2023/07/31 10:39:55;;;;;;;5.25;2.90;;;;;;;29.65;71.09;94385.91;4994605;28;20368;-90
2023/07/31 10:42:27;;;;;;;3.10;2.90;;;;;;;29.58;69.28;94380.22;5009810;28;20475;-91
2023/07/31 10:44:57;;;;;;;5.10;2.90;;;;;;;29.55;68.84;94375.47;4977320;28;20055;-91
2023/07/31 10:47:22;;;;;;;2.90;2.70;;;;;;;30.16;71.33;94367.56;4976337;28;20018;-93
2023/07/31 10:49:48;;;;;;;3.40;3.20;;;;;;;30.40;71.48;94369.91;4996407;28;20052;-91
2023/07/31 10:52:22;;;;;;;3.13;2.83;;;;;;;30.05;70.00;94373.47;5009827;28;20040;-92
2023/07/31 10:54:48;;;;;;;3.08;2.88;;;;;;;29.41;71.78;94372.84;4995502;28;20036;-95
2023/07/31 10:57:24;;;;;;;3.92;3.03;;;;;;;29.29;70.78;94370.72;4978478;28;20422;-94
2023/07/31 10:59:50;;;;;;;3.15;2.95;;;;;;;29.64;70.67;94362.97;4997727;28;20041;-94
2023/07/31 11:02:31;;;;;;;3.13;2.92;;;;;;;29.38;69.58;94360.09;4978242;28;20033;-96
2023/07/31 11:05:09;;;;;;;2.85;2.65;;;;;;;30.04;71.05;94358.53;4983130;28;20462;-93
2023/07/31 11:07:48;;;;;;;3.83;2.67;;;;;;;30.22;70.08;94358.31;4980617;28;20092;-96
2023/07/31 11:10:18;;;;;;;3.28;2.72;;;;;;;30.49;67.84;94357.34;4979428;28;20084;-94
2023/07/31 11:12:45;;;;;;;2.80;2.60;;;;;;;29.57;67.29;94354.63;4977983;28;20033;-93
2023/07/31 11:15:11;;;;;;;2.10;1.98;;;;;;;29.34;69.39;94359.16;4979830;28;20041;-95
2023/07/31 11:17:40;;;;;;;2.90;2.70;;;;;;;29.11;68.72;94352.19;4998311;28;20029;-95